Terminal Aerodrome Forecast
Issued by NWS

Home | Current Version | Previous Version | Text Only | Print | Product List | Glossary On
Versions: 1 2 3 4 5 6 7 8 9 10 11 12 13 14 15 16
000
FTUS46 KSGX 251720
TAFONT
TAF
KONT 251720Z 2518/2624 23006KT P6SM SCT030 BKN250
      TEMPO 2518/2519 BKN030
     FM252000 25011G19KT P6SM FEW030 SCT250
     FM260400 VRB05KT P6SM SCT250
     FM262000 25011KT P6SM SCT250=

USA.gov is the U.S. government's official web portal to all federal, state and local government web resources and services.